createdAt,value
2019-01-20T00:01:03.750Z,62.33
2019-01-20T00:03:35.045Z,62.31
2019-01-20T00:06:07.796Z,62.31
2019-01-20T00:08:38.913Z,62.30
2019-01-20T00:11:16.612Z,62.28
2019-01-20T00:13:43.078Z,62.26
2019-01-20T00:16:14.384Z,62.25
2019-01-20T00:18:45.594Z,62.25
2019-01-20T00:21:16.795Z,62.23
2019-01-20T00:23:48.075Z,62.23
2019-01-20T00:26:19.262Z,62.22
2019-01-20T00:28:50.514Z,62.28
2019-01-20T00:31:21.688Z,62.31
2019-01-20T00:33:52.845Z,62.32
2019-01-20T00:36:24.091Z,62.33
2019-01-20T00:38:55.326Z,62.36
2019-01-20T00:41:26.536Z,62.37
2019-01-20T00:43:57.760Z,62.35
2019-01-20T00:46:28.896Z,62.34
2019-01-20T00:49:00.292Z,62.34
2019-01-20T00:51:31.795Z,62.30
2019-01-20T00:54:02.972Z,62.30
2019-01-20T00:56:34.498Z,62.29
2019-01-20T00:59:05.641Z,62.28
2019-01-20T01:01:36.978Z,62.27
2019-01-20T01:04:08.193Z,62.28
2019-01-20T01:06:39.579Z,62.32
2019-01-20T01:09:10.887Z,62.35
2019-01-20T01:11:42.052Z,62.37
2019-01-20T01:14:13.579Z,62.38
2019-01-20T01:16:44.821Z,62.37
2019-01-20T01:19:16.097Z,62.34
2019-01-20T01:21:47.234Z,62.34
2019-01-20T01:24:18.453Z,62.37
2019-01-20T01:26:50.649Z,62.41
2019-01-20T01:29:21.805Z,62.44
2019-01-20T01:31:53.095Z,62.50
2019-01-20T01:34:24.312Z,62.54
2019-01-20T01:36:55.552Z,62.54
2019-01-20T01:39:26.776Z,62.57
2019-01-20T01:41:57.949Z,62.61
2019-01-20T01:44:29.126Z,62.62
2019-01-20T01:47:00.285Z,62.65
2019-01-20T01:49:31.525Z,62.64
2019-01-20T01:52:02.682Z,62.65
2019-01-20T01:54:33.891Z,62.60
2019-01-20T01:57:05.163Z,62.60
2019-01-20T01:59:36.307Z,62.61
2019-01-20T02:02:07.487Z,62.62
2019-01-20T02:04:38.666Z,62.62
2019-01-20T02:07:10.063Z,62.67
2019-01-20T02:09:41.335Z,62.69
2019-01-20T02:12:12.652Z,62.68
2019-01-20T02:14:43.932Z,62.71
2019-01-20T02:17:15.224Z,62.73
2019-01-20T02:19:46.404Z,62.76
2019-01-20T02:22:17.611Z,62.76
2019-01-20T02:24:48.909Z,62.77
2019-01-20T02:27:20.178Z,62.79
2019-01-20T02:29:51.383Z,62.79
2019-01-20T02:32:23.657Z,62.81
2019-01-20T02:34:54.909Z,62.82
2019-01-20T02:37:26.119Z,62.80
2019-01-20T02:39:57.325Z,62.81
2019-01-20T02:42:28.504Z,62.82
2019-01-20T02:44:59.793Z,62.82
2019-01-20T02:47:30.987Z,62.79
2019-01-20T02:50:02.195Z,62.79
2019-01-20T02:52:33.385Z,62.84
2019-01-20T02:55:05.096Z,62.83
2019-01-20T02:57:37.349Z,62.82
2019-01-20T03:00:20.167Z,62.82
2019-01-20T03:02:52.789Z,62.84
2019-01-20T03:05:24.715Z,62.86
2019-01-20T03:07:55.994Z,62.86
2019-01-20T03:10:27.243Z,62.86
2019-01-20T03:12:58.652Z,62.88
2019-01-20T03:15:29.960Z,62.89
2019-01-20T03:18:02.159Z,62.92
2019-01-20T03:20:33.491Z,62.96
2019-01-20T03:23:04.727Z,62.99
2019-01-20T03:25:35.961Z,63.00
2019-01-20T03:28:07.196Z,62.99
2019-01-20T03:30:38.399Z,62.99
2019-01-20T03:33:11.943Z,62.98
2019-01-20T03:35:46.105Z,63.00
2019-01-20T03:38:17.388Z,63.00
2019-01-20T03:40:48.674Z,63.02
2019-01-20T03:43:19.882Z,63.02
2019-01-20T03:45:51.122Z,63.07
2019-01-20T03:48:22.451Z,63.07
2019-01-20T03:50:53.684Z,63.08
2019-01-20T03:53:24.898Z,63.05
2019-01-20T03:55:56.100Z,63.05
2019-01-20T03:58:27.232Z,63.04
2019-01-20T04:00:58.601Z,63.04
2019-01-20T04:03:29.919Z,63.02
2019-01-20T04:06:01.180Z,63.07
2019-01-20T04:08:32.468Z,63.07
2019-01-20T04:11:03.912Z,63.08
2019-01-20T04:13:35.225Z,63.10
2019-01-20T04:16:06.476Z,63.11
2019-01-20T04:18:37.892Z,63.10
2019-01-20T04:21:09.200Z,63.17
2019-01-20T04:23:40.497Z,63.18
2019-01-20T04:26:11.731Z,63.18
2019-01-20T04:28:43.173Z,63.17
2019-01-20T04:31:14.327Z,63.20
2019-01-20T04:33:45.609Z,63.19
2019-01-20T04:36:16.895Z,63.17
2019-01-20T04:38:48.209Z,63.14
2019-01-20T04:41:19.425Z,63.15
2019-01-20T04:43:51.769Z,63.14
2019-01-20T04:46:23.068Z,63.13
2019-01-20T04:48:54.401Z,63.13
2019-01-20T04:51:25.675Z,63.14
2019-01-20T04:53:57.329Z,63.13
2019-01-20T04:56:28.676Z,63.14
2019-01-20T04:58:59.880Z,63.14
2019-01-20T05:01:31.152Z,63.16
2019-01-20T05:04:02.611Z,63.16
2019-01-20T05:06:33.852Z,63.14
2019-01-20T05:09:07.813Z,63.15
2019-01-20T05:11:39.031Z,63.20
2019-01-20T05:14:10.338Z,63.23
2019-01-20T05:16:41.541Z,63.27
2019-01-20T05:19:13.157Z,63.29
2019-01-20T05:21:44.369Z,63.29
2019-01-20T05:24:15.599Z,63.30
2019-01-20T05:26:46.883Z,63.28
2019-01-20T05:29:18.146Z,63.28
2019-01-20T05:31:49.368Z,63.26
2019-01-20T05:34:20.698Z,63.25
2019-01-20T05:36:52.190Z,63.21
2019-01-20T05:39:23.427Z,63.18
2019-01-20T05:41:54.950Z,63.17
2019-01-20T05:44:26.089Z,63.17
2019-01-20T05:46:57.282Z,63.19
2019-01-20T05:49:28.453Z,63.21
2019-01-20T05:51:59.794Z,63.24
2019-01-20T05:54:30.957Z,63.21
2019-01-20T05:57:02.216Z,63.20
2019-01-20T05:59:33.420Z,63.18
2019-01-20T06:02:04.690Z,63.13
2019-01-20T06:04:36.004Z,63.12
2019-01-20T06:07:07.415Z,63.12
2019-01-20T06:09:38.600Z,63.13
2019-01-20T06:12:09.931Z,63.15
2019-01-20T06:14:41.155Z,63.13
2019-01-20T06:17:12.396Z,63.11
2019-01-20T06:19:43.761Z,63.11
2019-01-20T06:22:15.074Z,63.16
2019-01-20T06:24:46.334Z,63.16
2019-01-20T06:27:17.567Z,63.14
2019-01-20T06:29:49.037Z,63.12
2019-01-20T06:32:20.467Z,63.13
2019-01-20T06:34:51.759Z,63.15
2019-01-20T06:37:23.086Z,63.17
2019-01-20T06:39:57.184Z,63.20
2019-01-20T06:42:28.421Z,63.21
2019-01-20T06:44:59.615Z,63.24
2019-01-20T06:47:30.883Z,63.24
2019-01-20T06:50:02.161Z,63.24
2019-01-20T06:52:34.421Z,63.23
2019-01-20T06:55:06.449Z,63.22
2019-01-20T06:57:37.773Z,63.23
2019-01-20T07:00:14.806Z,63.21
2019-01-20T07:02:46.089Z,63.23
2019-01-20T07:05:17.442Z,63.29
2019-01-20T07:07:49.004Z,63.27
2019-01-20T07:10:20.802Z,63.29
2019-01-20T07:12:52.153Z,63.32
2019-01-20T07:15:24.717Z,63.31
2019-01-20T07:17:55.912Z,63.33
2019-01-20T07:20:27.133Z,63.34
2019-01-20T07:22:58.341Z,63.36
2019-01-20T07:25:29.575Z,63.35
2019-01-20T07:28:01.001Z,63.37
2019-01-20T07:30:32.187Z,63.37
2019-01-20T07:33:05.057Z,63.37
2019-01-20T07:35:36.329Z,63.39
2019-01-20T07:38:07.694Z,63.35
2019-01-20T07:40:41.925Z,63.34
2019-01-20T07:43:17.034Z,63.35
2019-01-20T07:45:46.258Z,63.33
2019-01-20T07:48:17.614Z,63.31
2019-01-20T07:50:48.931Z,63.30
2019-01-20T07:53:20.124Z,63.26
2019-01-20T07:55:51.380Z,63.27
2019-01-20T07:58:22.566Z,63.26
2019-01-20T08:00:53.811Z,63.26
2019-01-20T08:03:25.035Z,63.25
2019-01-20T08:05:58.115Z,63.25
2019-01-20T08:08:29.348Z,63.25
2019-01-20T08:11:00.615Z,63.26
2019-01-20T08:13:31.785Z,63.26
2019-01-20T08:16:03.020Z,63.25
2019-01-20T08:18:34.443Z,63.25
2019-01-20T08:21:05.639Z,63.26
2019-01-20T08:23:36.834Z,63.25
2019-01-20T08:26:08.123Z,63.27
2019-01-20T08:28:39.414Z,63.28
2019-01-20T08:31:10.653Z,63.26
2019-01-20T08:33:42.001Z,63.22
2019-01-20T08:36:13.255Z,63.22
2019-01-20T08:38:44.557Z,63.21
2019-01-20T08:41:15.884Z,63.22
2019-01-20T08:43:47.282Z,63.21
2019-01-20T08:46:49.632Z,63.21
2019-01-20T08:49:20.867Z,63.22
2019-01-20T08:51:52.034Z,63.24
2019-01-20T08:54:23.370Z,63.20
2019-01-20T08:56:54.640Z,63.17
2019-01-20T08:59:25.910Z,63.18
2019-01-20T09:01:57.159Z,63.15
2019-01-20T09:04:28.406Z,63.14
2019-01-20T09:06:59.701Z,63.14
2019-01-20T09:09:30.948Z,63.12
2019-01-20T09:12:02.243Z,63.12
2019-01-20T09:14:33.430Z,63.12
2019-01-20T09:17:05.115Z,63.11
2019-01-20T09:19:36.415Z,63.08
2019-01-20T09:22:07.710Z,63.01
2019-01-20T09:24:39.308Z,62.99
2019-01-20T09:27:10.672Z,62.95
2019-01-20T09:29:41.918Z,62.88
2019-01-20T09:32:13.556Z,62.90
2019-01-20T09:34:44.865Z,62.92
2019-01-20T09:37:16.567Z,62.89
2019-01-20T09:39:47.863Z,62.87
2019-01-20T09:42:19.336Z,62.81
2019-01-20T09:44:50.563Z,62.71
2019-01-20T09:47:21.845Z,62.73
2019-01-20T09:49:53.335Z,62.71
2019-01-20T09:52:24.874Z,62.74
2019-01-20T09:54:56.077Z,62.73
2019-01-20T09:57:27.371Z,62.71
2019-01-20T09:59:58.582Z,62.68
2019-01-20T10:02:30.002Z,62.67
2019-01-20T10:05:02.457Z,62.58
2019-01-20T10:07:33.637Z,62.53
2019-01-20T10:10:05.892Z,62.58
2019-01-20T10:12:37.119Z,62.60
2019-01-20T10:15:09.758Z,62.56
2019-01-20T10:17:41.204Z,62.52
2019-01-20T10:20:18.624Z,62.50
2019-01-20T10:22:50.449Z,62.47
2019-01-20T10:25:22.668Z,62.43
2019-01-20T10:27:53.936Z,62.39
2019-01-20T10:30:30.552Z,62.28
2019-01-20T10:33:03.359Z,62.23
2019-01-20T10:35:52.550Z,62.20
2019-01-20T10:38:23.750Z,62.22
2019-01-20T10:40:54.986Z,62.03
2019-01-20T10:43:26.265Z,62.02
2019-01-20T10:45:57.521Z,62.06
2019-01-20T10:48:28.760Z,62.07
2019-01-20T10:51:00.024Z,62.08
2019-01-20T10:53:31.275Z,62.04
2019-01-20T10:56:02.440Z,62.00
2019-01-20T10:58:33.615Z,61.94
2019-01-20T11:01:04.904Z,61.95
2019-01-20T11:03:36.210Z,61.91
2019-01-20T11:06:07.379Z,61.86
2019-01-20T11:08:38.553Z,61.85
2019-01-20T11:11:09.896Z,61.84
2019-01-20T11:13:41.161Z,61.83
2019-01-20T11:16:13.208Z,61.78
2019-01-20T11:18:44.471Z,61.74
2019-01-20T11:21:15.737Z,61.70
2019-01-20T11:23:47.469Z,61.67
2019-01-20T11:26:19.371Z,61.66
2019-01-20T11:28:50.925Z,61.67
2019-01-20T11:31:22.219Z,61.62
2019-01-20T11:33:53.480Z,61.64
2019-01-20T11:36:24.671Z,61.47
2019-01-20T11:38:55.992Z,61.44
2019-01-20T11:41:28.455Z,61.42
2019-01-20T11:43:59.856Z,61.40
2019-01-20T11:46:31.080Z,61.27
2019-01-20T11:49:02.313Z,61.24
2019-01-20T11:51:33.494Z,61.13
2019-01-20T11:54:04.690Z,61.15
2019-01-20T11:56:35.935Z,61.16
2019-01-20T11:59:07.132Z,61.17
2019-01-20T12:01:38.419Z,61.10
2019-01-20T12:04:09.593Z,60.91
2019-01-20T12:06:40.796Z,60.64
2019-01-20T12:09:12.008Z,60.84
2019-01-20T12:11:43.198Z,60.78
2019-01-20T12:14:14.483Z,60.78
2019-01-20T12:16:45.674Z,60.77
2019-01-20T12:19:16.953Z,60.71
2019-01-20T12:21:48.293Z,60.70
2019-01-20T12:24:19.557Z,60.57
2019-01-20T12:26:50.898Z,60.55
2019-01-20T12:29:22.399Z,60.51
2019-01-20T12:31:53.662Z,60.48
2019-01-20T12:34:24.962Z,60.42
2019-01-20T12:36:56.193Z,60.48
2019-01-20T12:39:27.398Z,60.36
2019-01-20T12:41:58.611Z,60.32
2019-01-20T12:44:31.575Z,60.36
2019-01-20T12:47:03.057Z,60.35
2019-01-20T12:49:34.315Z,60.27
2019-01-20T12:52:05.631Z,60.27
2019-01-20T12:54:36.978Z,60.29
2019-01-20T12:57:08.208Z,60.22
2019-01-20T12:59:39.404Z,60.12
2019-01-20T13:02:10.650Z,60.05
2019-01-20T13:04:41.900Z,59.98
2019-01-20T13:07:13.239Z,60.02
2019-01-20T13:09:44.314Z,59.97
2019-01-20T13:12:15.545Z,59.99
2019-01-20T13:14:46.910Z,59.93
2019-01-20T13:17:18.267Z,59.90
2019-01-20T13:19:49.532Z,59.88
2019-01-20T13:22:20.689Z,59.90
2019-01-20T13:24:52.065Z,59.88
2019-01-20T13:27:23.264Z,59.76
2019-01-20T13:29:54.583Z,59.77
2019-01-20T13:32:25.792Z,59.64
2019-01-20T13:34:57.232Z,59.66
2019-01-20T13:37:28.444Z,59.61
2019-01-20T13:39:59.663Z,59.59
2019-01-20T13:42:31.449Z,59.60
2019-01-20T13:45:03.049Z,59.56
2019-01-20T13:47:34.228Z,59.54
2019-01-20T13:50:07.570Z,59.50
2019-01-20T13:52:38.823Z,59.41
2019-01-20T13:55:10.625Z,59.47
2019-01-20T13:57:42.757Z,59.52
2019-01-20T14:00:17.723Z,59.44
2019-01-20T14:02:49.971Z,59.46
2019-01-20T14:05:21.349Z,59.73
2019-01-20T14:07:52.632Z,60.19
2019-01-20T14:10:24.386Z,60.32
2019-01-20T14:12:55.646Z,60.23
2019-01-20T14:15:26.989Z,60.38
2019-01-20T14:17:58.348Z,59.67
2019-01-20T14:20:29.554Z,58.85
2019-01-20T14:23:00.757Z,58.65
2019-01-20T14:25:32.062Z,58.61
2019-01-20T14:28:03.370Z,58.76
2019-01-20T14:30:34.704Z,58.77
2019-01-20T14:33:06.029Z,58.68
2019-01-20T14:35:37.219Z,58.37
2019-01-20T14:38:08.496Z,57.87
2019-01-20T14:40:39.774Z,57.48
2019-01-20T14:43:11.130Z,57.13
2019-01-20T14:45:42.455Z,56.97
2019-01-20T14:48:13.707Z,56.81
2019-01-20T14:50:46.152Z,56.77
2019-01-20T14:53:18.401Z,56.67
2019-01-20T14:55:49.642Z,56.66
2019-01-20T14:58:20.939Z,56.60
2019-01-20T15:00:52.170Z,56.60
2019-01-20T15:03:23.469Z,56.64
2019-01-20T15:05:54.754Z,56.70
2019-01-20T15:08:26.023Z,56.73
2019-01-20T15:10:57.175Z,56.85
2019-01-20T15:13:28.785Z,56.82
2019-01-20T15:16:01.274Z,56.85
2019-01-20T15:18:32.749Z,56.88
2019-01-20T15:21:04.282Z,56.99
2019-01-20T15:23:35.536Z,57.13
2019-01-20T15:26:06.800Z,57.16
2019-01-20T15:28:38.412Z,57.22
2019-01-20T15:31:09.698Z,57.25
2019-01-20T15:33:40.992Z,57.25
2019-01-20T15:36:12.290Z,57.33
2019-01-20T15:38:43.644Z,57.39
2019-01-20T15:41:14.809Z,57.50
2019-01-20T15:43:46.138Z,57.55
2019-01-20T15:46:17.594Z,57.63
2019-01-20T15:48:48.892Z,57.67
2019-01-20T15:51:20.219Z,57.95
2019-01-20T15:53:51.438Z,57.74
2019-01-20T15:56:23.043Z,57.82
2019-01-20T15:58:54.570Z,57.85
2019-01-20T16:01:25.961Z,57.94
2019-01-20T16:03:57.795Z,58.00
2019-01-20T16:06:29.458Z,58.04
2019-01-20T16:09:01.443Z,58.11
2019-01-20T16:11:34.061Z,58.16
2019-01-20T16:14:05.774Z,58.24
2019-01-20T16:16:38.362Z,58.28
2019-01-20T16:19:09.848Z,58.34
2019-01-20T16:21:44.825Z,58.39
2019-01-20T16:24:25.132Z,58.45
2019-01-20T16:27:01.053Z,58.51
2019-01-20T16:29:31.914Z,58.58
2019-01-20T16:32:04.620Z,58.65
2019-01-20T16:34:36.385Z,58.67
2019-01-20T16:37:07.834Z,58.74
2019-01-20T16:39:45.652Z,58.79
2019-01-20T16:42:15.622Z,58.85
2019-01-20T16:44:47.085Z,58.90
2019-01-20T16:47:19.931Z,58.92
2019-01-20T16:49:51.093Z,58.98
2019-01-20T16:52:23.585Z,59.00
2019-01-20T16:54:55.022Z,59.04
2019-01-20T16:57:28.930Z,59.07
2019-01-20T17:00:12.390Z,59.10
2019-01-20T17:02:43.697Z,59.18
2019-01-20T17:05:14.952Z,59.24
2019-01-20T17:07:46.299Z,59.28
2019-01-20T17:10:20.016Z,59.36
2019-01-20T17:12:52.434Z,59.41
2019-01-20T17:15:26.199Z,59.47
2019-01-20T17:17:57.706Z,59.53
2019-01-20T17:20:29.445Z,59.60
2019-01-20T17:23:01.276Z,59.66
2019-01-20T17:25:32.981Z,59.71
2019-01-20T17:28:04.788Z,59.74
2019-01-20T17:30:36.765Z,59.82
2019-01-20T17:33:10.726Z,59.87
2019-01-20T17:35:42.278Z,59.93
2019-01-20T17:38:16.544Z,59.97
2019-01-20T17:40:50.295Z,60.01
2019-01-20T17:43:23.917Z,60.07
2019-01-20T17:45:55.320Z,60.11
2019-01-20T17:48:26.726Z,60.14
2019-01-20T17:51:00.276Z,60.21
2019-01-20T17:53:31.992Z,60.25
2019-01-20T17:56:03.351Z,60.28
2019-01-20T17:58:35.273Z,60.35
2019-01-20T18:01:08.387Z,60.41
2019-01-20T18:03:39.691Z,60.44
2019-01-20T18:06:10.912Z,60.49
2019-01-20T18:08:42.160Z,60.52
2019-01-20T18:11:13.809Z,60.55
2019-01-20T18:13:46.340Z,60.62
2019-01-20T18:16:17.603Z,60.66
2019-01-20T18:18:48.808Z,60.71
2019-01-20T18:21:20.008Z,60.73
2019-01-20T18:23:51.222Z,60.75
2019-01-20T18:26:22.420Z,60.78
2019-01-20T18:28:53.667Z,60.79
2019-01-20T18:31:25.086Z,60.82
2019-01-20T18:33:56.578Z,60.87
2019-01-20T18:36:27.837Z,60.93
2019-01-20T18:38:59.185Z,61.00
2019-01-20T18:41:30.882Z,61.06
2019-01-20T18:44:02.812Z,61.08
2019-01-20T18:46:34.104Z,61.11
2019-01-20T18:49:05.376Z,61.14
2019-01-20T18:51:36.599Z,61.16
2019-01-20T18:54:08.042Z,61.17
2019-01-20T18:56:39.482Z,61.18
2019-01-20T18:59:10.618Z,61.19
2019-01-20T19:01:41.834Z,61.22
2019-01-20T19:04:14.023Z,61.24
2019-01-20T19:06:45.501Z,61.26
2019-01-20T19:09:16.840Z,61.31
2019-01-20T19:11:48.057Z,61.35
2019-01-20T19:14:19.444Z,61.37
2019-01-20T19:16:50.867Z,61.44
2019-01-20T19:19:22.267Z,61.47
2019-01-20T19:21:53.594Z,61.50
2019-01-20T19:24:25.115Z,61.54
2019-01-20T19:26:57.499Z,61.58
2019-01-20T19:29:28.782Z,61.59
2019-01-20T19:32:00.062Z,61.61
2019-01-20T19:34:31.271Z,61.62
2019-01-20T19:37:02.548Z,61.68
2019-01-20T19:39:33.797Z,61.71
2019-01-20T19:42:05.017Z,61.72
2019-01-20T19:44:36.376Z,61.74
2019-01-20T19:47:07.616Z,61.74
2019-01-20T19:49:38.994Z,61.80
2019-01-20T19:52:10.260Z,61.83
2019-01-20T19:54:41.755Z,61.83
2019-01-20T19:57:13.150Z,61.88
2019-01-20T19:59:44.606Z,61.88
2019-01-20T20:02:15.999Z,61.88
2019-01-20T20:04:47.496Z,61.87
2019-01-20T20:07:18.701Z,61.89
2019-01-20T20:09:49.936Z,61.89
2019-01-20T20:12:21.255Z,61.89
2019-01-20T20:14:52.566Z,61.90
2019-01-20T20:17:23.782Z,61.92
2019-01-20T20:19:55.028Z,61.94
2019-01-20T20:22:27.683Z,61.96
2019-01-20T20:24:58.955Z,61.97
2019-01-20T20:27:30.235Z,61.95
2019-01-20T20:30:01.922Z,61.94
2019-01-20T20:32:33.478Z,61.92
2019-01-20T20:35:06.122Z,61.92
2019-01-20T20:37:37.843Z,61.94
2019-01-20T20:40:10.571Z,61.95
2019-01-20T20:42:41.879Z,61.94
2019-01-20T20:45:15.745Z,61.92
2019-01-20T20:47:47.490Z,61.94
2019-01-20T20:50:18.896Z,61.98
2019-01-20T20:52:50.392Z,62.00
2019-01-20T20:55:22.041Z,62.04
2019-01-20T20:57:54.502Z,62.03
2019-01-20T21:00:31.446Z,61.99
2019-01-20T21:03:04.897Z,62.08
2019-01-20T21:05:36.386Z,62.04
2019-01-20T21:08:08.641Z,62.08
2019-01-20T21:10:41.243Z,62.01
2019-01-20T21:13:13.888Z,62.00
2019-01-20T21:15:45.354Z,61.98
2019-01-20T21:18:16.729Z,62.02
2019-01-20T21:20:48.331Z,62.04
2019-01-20T21:23:19.701Z,61.97
2019-01-20T21:25:51.150Z,61.94
2019-01-20T21:28:22.339Z,61.95
2019-01-20T21:30:53.530Z,61.96
2019-01-20T21:33:24.903Z,61.94
2019-01-20T21:35:56.211Z,61.94
2019-01-20T21:38:27.517Z,61.92
2019-01-20T21:40:58.766Z,61.92
2019-01-20T21:43:30.062Z,61.93
2019-01-20T21:46:01.232Z,62.00
2019-01-20T21:48:32.580Z,61.97
2019-01-20T21:51:04.155Z,62.04
2019-01-20T21:53:35.436Z,62.06
2019-01-20T21:56:06.827Z,62.14
2019-01-20T21:58:38.187Z,62.19
2019-01-20T22:01:09.569Z,62.24
2019-01-20T22:03:40.857Z,62.33
2019-01-20T22:06:12.094Z,62.37
2019-01-20T22:08:43.602Z,62.40
2019-01-20T22:11:15.161Z,62.44
2019-01-20T22:13:48.101Z,62.59
2019-01-20T22:16:19.270Z,62.53
2019-01-20T22:18:50.558Z,62.58
2019-01-20T22:21:22.249Z,62.58
2019-01-20T22:23:53.497Z,62.59
2019-01-20T22:26:24.761Z,62.62
2019-01-20T22:28:55.925Z,62.59
2019-01-20T22:31:28.338Z,62.58
2019-01-20T22:33:59.582Z,62.58
2019-01-20T22:36:30.879Z,62.59
2019-01-20T22:39:02.229Z,62.57
2019-01-20T22:41:35.052Z,62.54
2019-01-20T22:44:06.431Z,62.56
2019-01-20T22:46:37.792Z,62.60
2019-01-20T22:49:09.115Z,62.69
2019-01-20T22:51:40.332Z,62.65
2019-01-20T22:54:11.800Z,62.66
2019-01-20T22:56:43.032Z,62.72
2019-01-20T22:59:14.254Z,62.72
2019-01-20T23:01:45.791Z,62.72
2019-01-20T23:04:17.345Z,62.80
2019-01-20T23:06:49.057Z,62.86
2019-01-20T23:09:21.285Z,62.96
2019-01-20T23:11:52.613Z,62.97
2019-01-20T23:14:23.891Z,63.01
2019-01-20T23:16:55.261Z,63.09
2019-01-20T23:19:26.620Z,63.12
2019-01-20T23:21:58.059Z,63.18
2019-01-20T23:24:29.342Z,63.14
2019-01-20T23:27:01.743Z,63.18
2019-01-20T23:29:33.995Z,63.21
2019-01-20T23:32:05.324Z,63.22
2019-01-20T23:34:36.634Z,63.24
2019-01-20T23:37:07.816Z,63.27
2019-01-20T23:39:39.034Z,63.28
2019-01-20T23:42:10.207Z,63.33
2019-01-20T23:44:41.413Z,63.40
2019-01-20T23:47:15.271Z,63.34
2019-01-20T23:49:45.655Z,63.30
2019-01-20T23:52:16.942Z,63.29
2019-01-20T23:54:48.224Z,63.30
2019-01-20T23:57:19.478Z,63.28
2019-01-20T23:59:50.764Z,63.27
